createdAt,value
2022-10-04T00:02:31.160Z,3.35
2022-10-04T00:05:04.143Z,2.80
2022-10-04T00:07:35.514Z,2.97
2022-10-04T00:10:08.816Z,2.63
2022-10-04T00:12:41.111Z,2.50
2022-10-04T00:15:21.804Z,2.85
2022-10-04T00:18:24.294Z,3.38
2022-10-04T00:21:01.895Z,2.63
2022-10-04T00:23:42.384Z,3.17
2022-10-04T00:26:35.720Z,3.45
2022-10-04T00:29:31.263Z,3.30
2022-10-04T00:32:29.920Z,3.53
2022-10-04T00:34:59.263Z,3.35
2022-10-04T00:37:28.525Z,3.30
2022-10-04T00:40:04.669Z,4.72
2022-10-04T00:42:42.875Z,3.88
2022-10-04T00:45:29.549Z,3.72
2022-10-04T00:48:39.345Z,3.53
2022-10-04T00:51:22.765Z,4.07
2022-10-04T00:53:59.914Z,3.47
2022-10-04T00:56:33.846Z,3.60
2022-10-04T00:59:18.469Z,3.20
2022-10-04T01:01:52.066Z,3.50
2022-10-04T01:04:29.836Z,3.17
2022-10-04T01:07:02.923Z,3.22
2022-10-04T01:09:34.780Z,3.05
2022-10-04T01:12:08.703Z,2.58
2022-10-04T01:14:48.662Z,2.85
2022-10-04T01:17:16.745Z,3.47
2022-10-04T01:19:53.253Z,3.83
2022-10-04T01:22:35.440Z,3.78
2022-10-04T01:25:03.779Z,3.40
2022-10-04T01:27:38.641Z,3.92
2022-10-04T01:30:10.279Z,4.05
2022-10-04T01:32:40.107Z,3.42
2022-10-04T01:35:10.717Z,3.50
2022-10-04T01:37:40.877Z,3.40
2022-10-04T01:40:10.619Z,3.05
2022-10-04T01:42:44.839Z,3.60
2022-10-04T01:45:21.305Z,3.90
2022-10-04T01:47:54.532Z,3.35
2022-10-04T01:50:29.651Z,3.53
2022-10-04T01:53:10.109Z,3.30
2022-10-04T01:55:41.257Z,3.67
2022-10-04T01:58:14.082Z,3.72
2022-10-04T02:00:51.524Z,2.75
2022-10-04T02:03:25.416Z,3.05
2022-10-04T02:05:59.696Z,3.00
2022-10-04T02:08:32.596Z,3.22
2022-10-04T02:11:02.845Z,4.13
2022-10-04T02:13:36.843Z,3.10
2022-10-04T02:16:09.794Z,3.28
2022-10-04T02:18:39.289Z,3.70
2022-10-04T02:21:08.521Z,3.67
2022-10-04T02:23:39.998Z,3.55
2022-10-04T02:26:09.105Z,3.78
2022-10-04T02:28:39.444Z,3.33
2022-10-04T02:31:26.779Z,3.38
2022-10-04T02:33:58.657Z,2.63
2022-10-04T02:36:29.576Z,3.10
2022-10-04T02:39:03.444Z,3.22
2022-10-04T02:41:33.933Z,3.72
2022-10-04T02:44:10.972Z,4.00
2022-10-04T02:46:50.402Z,3.63
2022-10-04T02:49:26.656Z,3.58
2022-10-04T02:52:02.413Z,3.80
2022-10-04T02:57:02.635Z,2.53
2022-10-04T02:59:35.230Z,3.58
2022-10-04T03:02:04.074Z,3.78
2022-10-04T03:04:36.417Z,3.50
2022-10-04T03:07:09.219Z,3.67
2022-10-04T03:09:41.428Z,2.72
2022-10-04T03:12:13.604Z,3.03
2022-10-04T03:14:41.796Z,2.95
2022-10-04T03:17:10.281Z,3.08
2022-10-04T03:19:38.783Z,2.92
2022-10-04T03:22:10.248Z,3.50
2022-10-04T03:24:47.080Z,3.88
2022-10-04T03:27:18.300Z,3.05
2022-10-04T03:29:46.993Z,3.72
2022-10-04T03:32:16.887Z,4.28
2022-10-04T03:34:53.283Z,3.90
2022-10-04T03:37:21.601Z,4.68
2022-10-04T03:39:53.264Z,3.95
2022-10-04T03:42:24.417Z,3.45
2022-10-04T03:44:56.375Z,3.55
2022-10-04T03:47:28.806Z,4.45
2022-10-04T03:49:59.919Z,4.82
2022-10-04T03:52:32.928Z,4.07
2022-10-04T03:55:07.566Z,4.43
2022-10-04T03:57:37.900Z,4.05
2022-10-04T04:00:08.031Z,3.53
2022-10-04T04:02:46.715Z,4.03
2022-10-04T04:05:20.955Z,3.72
2022-10-04T04:07:55.151Z,3.10
2022-10-04T04:10:28.436Z,4.75
2022-10-04T04:13:00.228Z,2.90
2022-10-04T04:15:45.461Z,5.15
2022-10-04T04:18:18.666Z,4.45
2022-10-04T04:20:47.243Z,4.50
2022-10-04T04:23:25.288Z,4.68
2022-10-04T04:25:56.742Z,4.30
2022-10-04T04:28:28.084Z,4.63
2022-10-04T04:31:02.430Z,4.45
2022-10-04T04:33:34.679Z,4.10
2022-10-04T04:36:07.965Z,4.28
2022-10-04T04:38:56.410Z,4.60
2022-10-04T04:41:27.970Z,4.50
2022-10-04T04:43:56.184Z,4.22
2022-10-04T04:46:27.625Z,5.35
2022-10-04T04:49:03.216Z,5.45
2022-10-04T04:51:33.350Z,4.40
2022-10-04T04:54:04.956Z,4.85
2022-10-04T04:56:37.937Z,5.25
2022-10-04T04:59:08.988Z,5.78
2022-10-04T05:01:44.054Z,5.13
2022-10-04T05:04:19.907Z,4.60
2022-10-04T05:06:49.974Z,5.45
2022-10-04T05:09:25.880Z,4.93
2022-10-04T05:11:59.256Z,5.10
2022-10-04T05:14:28.119Z,5.78
2022-10-04T05:16:56.842Z,6.20
2022-10-04T05:19:28.740Z,6.22
2022-10-04T05:21:59.398Z,5.65
2022-10-04T05:24:30.235Z,5.45
2022-10-04T05:27:03.839Z,5.80
2022-10-04T05:29:36.367Z,6.70
2022-10-04T05:32:15.616Z,6.07
2022-10-04T05:34:45.761Z,5.50
2022-10-04T05:37:24.252Z,6.10
2022-10-04T05:40:04.238Z,6.20
2022-10-04T05:42:39.528Z,8.23
2022-10-04T05:45:18.442Z,9.63
2022-10-04T05:47:48.996Z,8.52
2022-10-04T05:50:20.607Z,9.00
2022-10-04T05:52:51.428Z,6.88
2022-10-04T05:55:29.916Z,7.13
2022-10-04T05:58:18.306Z,5.70
2022-10-04T06:01:10.615Z,4.82
2022-10-04T06:03:52.516Z,5.22
2022-10-04T06:06:25.523Z,5.07
2022-10-04T06:09:06.113Z,4.15
2022-10-04T06:11:46.310Z,4.65
2022-10-04T06:14:50.140Z,5.05
2022-10-04T06:17:48.882Z,4.13
2022-10-04T06:20:58.569Z,2.95
2022-10-04T06:23:29.922Z,3.20
2022-10-04T06:26:02.300Z,3.20
2022-10-04T06:28:33.030Z,2.90
2022-10-04T06:31:43.884Z,2.70
2022-10-04T06:34:45.166Z,2.88
2022-10-04T06:37:31.487Z,2.58
2022-10-04T06:40:26.889Z,2.63
2022-10-04T06:43:12.774Z,2.65
2022-10-04T06:45:59.685Z,2.22
2022-10-04T06:48:50.705Z,2.58
2022-10-04T06:51:34.635Z,2.08
2022-10-04T06:54:13.679Z,2.58
2022-10-04T06:57:13.415Z,2.55
2022-10-04T07:00:01.561Z,2.45
2022-10-04T07:02:35.499Z,3.10
2022-10-04T07:05:12.348Z,2.42
2022-10-04T07:07:47.462Z,2.28
2022-10-04T07:10:33.526Z,2.10
2022-10-04T07:13:14.944Z,2.95
2022-10-04T07:15:50.074Z,2.30
2022-10-04T07:18:25.227Z,2.58
2022-10-04T07:21:02.090Z,2.08
2022-10-04T07:23:35.076Z,1.90
2022-10-04T07:26:07.840Z,2.00
2022-10-04T07:28:59.683Z,2.70
2022-10-04T07:31:30.971Z,1.70
2022-10-04T07:34:03.042Z,2.25
2022-10-04T07:36:42.536Z,2.53
2022-10-04T07:39:15.314Z,1.52
2022-10-04T07:41:51.431Z,2.17
2022-10-04T07:44:30.325Z,2.25
2022-10-04T07:47:03.996Z,2.08
2022-10-04T07:49:39.284Z,1.60
2022-10-04T07:52:36.200Z,2.83
2022-10-04T07:55:15.368Z,2.78
2022-10-04T07:57:54.255Z,3.53
2022-10-04T08:00:24.996Z,4.57
2022-10-04T08:03:15.763Z,3.13
2022-10-04T08:05:49.636Z,3.67
2022-10-04T08:08:37.747Z,4.70
2022-10-04T08:11:27.791Z,2.72
2022-10-04T08:14:10.441Z,2.38
2022-10-04T08:16:47.275Z,3.00
2022-10-04T08:19:36.258Z,3.15
2022-10-04T08:22:13.389Z,3.20
2022-10-04T08:24:55.259Z,2.67
2022-10-04T08:27:37.995Z,2.25
2022-10-04T08:30:12.642Z,2.60
2022-10-04T08:33:02.029Z,2.42
2022-10-04T08:35:39.436Z,2.38
2022-10-04T08:38:21.242Z,4.13
2022-10-04T08:41:08.403Z,3.03
2022-10-04T08:44:10.979Z,3.42
2022-10-04T08:47:07.651Z,2.42
2022-10-04T08:52:53.103Z,2.00
2022-10-04T08:55:51.521Z,2.30
2022-10-04T08:58:54.862Z,2.72
2022-10-04T09:01:46.102Z,1.70
2022-10-04T09:04:40.724Z,2.55
2022-10-04T09:07:38.587Z,1.92
2022-10-04T09:10:41.052Z,1.85
2022-10-04T09:13:34.341Z,2.10
2022-10-04T09:16:16.001Z,2.20
2022-10-04T09:19:17.579Z,2.10
2022-10-04T09:22:11.499Z,2.45
2022-10-04T09:25:25.463Z,2.13
2022-10-04T09:28:26.512Z,2.33
2022-10-04T09:31:20.568Z,2.03
2022-10-04T09:34:03.623Z,2.22
2022-10-04T09:37:09.812Z,8.10
2022-10-04T09:40:27.875Z,5.85
2022-10-04T09:43:19.649Z,2.90
2022-10-04T09:46:11.409Z,2.72
2022-10-04T09:48:45.429Z,2.10
2022-10-04T09:51:40.923Z,1.60
2022-10-04T09:54:51.326Z,1.80
2022-10-04T09:57:40.803Z,1.85
2022-10-04T10:00:25.743Z,1.77
2022-10-04T10:03:24.513Z,1.90
2022-10-04T10:06:10.232Z,2.25
2022-10-04T10:08:46.770Z,2.17
2022-10-04T10:11:48.035Z,1.52
2022-10-04T10:14:52.089Z,1.50
2022-10-04T10:17:37.543Z,1.42
2022-10-04T10:20:40.259Z,1.70
2022-10-04T10:23:35.891Z,1.00
2022-10-04T10:26:24.889Z,1.48
2022-10-04T10:29:22.021Z,1.27
2022-10-04T10:32:28.104Z,1.95
2022-10-04T10:35:18.856Z,1.33
2022-10-04T10:38:04.802Z,1.33
2022-10-04T10:40:55.310Z,0.90
2022-10-04T10:43:53.150Z,1.15
2022-10-04T10:46:49.845Z,1.08
2022-10-04T10:49:42.015Z,0.68
2022-10-04T10:52:42.743Z,1.15
2022-10-04T10:55:29.992Z,1.25
2022-10-04T10:58:30.431Z,1.13
2022-10-04T11:01:18.514Z,1.40
2022-10-04T11:04:19.210Z,1.25
2022-10-04T11:07:31.091Z,1.35
2022-10-04T11:10:34.047Z,1.10
2022-10-04T11:13:21.599Z,0.90
2022-10-04T11:16:11.334Z,0.90
2022-10-04T11:19:13.374Z,1.00
2022-10-04T11:22:09.153Z,0.90
2022-10-04T11:24:57.210Z,1.73
2022-10-04T11:27:47.850Z,1.30
2022-10-04T11:30:23.592Z,0.90
2022-10-04T11:33:46.049Z,1.00
2022-10-04T11:36:30.975Z,1.00
2022-10-04T11:39:23.446Z,1.17
2022-10-04T11:41:56.707Z,0.90
2022-10-04T11:44:42.367Z,0.70
2022-10-04T11:47:25.825Z,0.82
2022-10-04T11:50:11.536Z,0.90
2022-10-04T11:53:27.326Z,0.90
2022-10-04T11:56:22.366Z,0.93
2022-10-04T11:59:19.685Z,0.68
2022-10-04T12:02:27.135Z,1.20
2022-10-04T12:05:35.735Z,0.80
2022-10-04T12:08:19.109Z,0.70
2022-10-04T12:11:02.426Z,0.93
2022-10-04T12:13:59.865Z,0.93
2022-10-04T12:16:56.910Z,0.82
2022-10-04T12:19:52.382Z,0.90
2022-10-04T12:22:44.265Z,1.17
2022-10-04T12:25:58.194Z,0.70
2022-10-04T12:28:42.670Z,0.60
2022-10-04T12:31:23.927Z,0.80
2022-10-04T12:34:01.423Z,0.80
2022-10-04T12:36:49.007Z,1.08
2022-10-04T12:39:31.887Z,1.20
2022-10-04T12:42:12.677Z,1.10
2022-10-04T12:44:53.074Z,1.48
2022-10-04T12:47:44.772Z,0.80
2022-10-04T12:50:27.188Z,0.77
2022-10-04T12:53:06.266Z,1.85
2022-10-04T12:56:03.653Z,0.80
2022-10-04T12:58:44.057Z,0.80
2022-10-04T13:01:20.504Z,1.45
2022-10-04T13:04:22.602Z,0.90
2022-10-04T13:07:01.923Z,0.90
2022-10-04T13:09:55.143Z,1.55
2022-10-04T13:12:39.650Z,0.80
2022-10-04T13:15:24.397Z,1.00
2022-10-04T13:18:02.172Z,0.90
2022-10-04T13:20:51.491Z,0.60
2022-10-04T13:23:31.639Z,0.70
2022-10-04T13:26:17.877Z,1.13
2022-10-04T13:31:25.915Z,0.80
2022-10-04T13:34:02.818Z,0.70
2022-10-04T13:36:51.065Z,1.02
2022-10-04T13:39:41.470Z,0.90
2022-10-04T13:42:27.422Z,0.80
2022-10-04T13:45:10.838Z,0.70
2022-10-04T13:48:02.990Z,1.15
2022-10-04T13:50:45.838Z,0.80
2022-10-04T13:53:43.675Z,1.02
2022-10-04T13:56:40.290Z,0.80
2022-10-04T13:59:20.217Z,0.70
2022-10-04T14:02:13.958Z,1.20
2022-10-04T14:05:01.191Z,0.80
2022-10-04T14:07:51.365Z,0.93
2022-10-04T14:11:00.232Z,0.93
2022-10-04T14:14:10.343Z,0.80
2022-10-04T14:17:13.065Z,0.80
2022-10-04T14:20:26.112Z,1.17
2022-10-04T14:23:32.163Z,0.85
2022-10-04T14:26:25.102Z,0.68
2022-10-04T14:29:29.784Z,0.88
2022-10-04T14:32:20.469Z,0.70
2022-10-04T14:35:02.235Z,1.40
2022-10-04T14:38:04.423Z,0.80
2022-10-04T14:40:51.123Z,0.70
2022-10-04T14:43:54.370Z,0.80
2022-10-04T14:46:29.695Z,1.05
2022-10-04T14:49:12.396Z,1.17
2022-10-04T14:52:08.381Z,0.70
2022-10-04T14:54:52.480Z,0.90
2022-10-04T14:57:40.160Z,1.08
2022-10-04T15:00:20.124Z,0.88
2022-10-04T15:03:13.639Z,0.68
2022-10-04T15:06:21.267Z,0.82
2022-10-04T15:09:19.181Z,0.80
2022-10-04T15:15:12.124Z,1.20
2022-10-04T15:17:54.574Z,0.75
2022-10-04T15:20:26.544Z,1.27
2022-10-04T15:22:58.524Z,1.10
2022-10-04T15:25:41.864Z,1.25
2022-10-04T15:28:32.021Z,1.73
2022-10-04T15:31:06.212Z,1.10
2022-10-04T15:33:42.337Z,1.25
2022-10-04T15:36:31.695Z,0.93
2022-10-04T15:39:06.256Z,1.27
2022-10-04T15:41:46.940Z,1.23
2022-10-04T15:44:48.413Z,1.27
2022-10-04T15:47:24.889Z,1.10
2022-10-04T15:50:04.206Z,1.38
2022-10-04T15:53:02.619Z,1.10
2022-10-04T15:55:50.392Z,1.00
2022-10-04T15:58:32.157Z,0.88
2022-10-04T16:01:17.847Z,0.90
2022-10-04T16:03:53.545Z,0.98
2022-10-04T16:06:26.726Z,1.05
2022-10-04T16:09:18.779Z,1.40
2022-10-04T16:12:04.471Z,0.90
2022-10-04T16:15:09.422Z,0.77
2022-10-04T16:18:07.288Z,0.90
2022-10-04T16:20:56.914Z,1.20
2022-10-04T16:23:43.866Z,1.40
2022-10-04T16:26:14.041Z,1.15
2022-10-04T16:29:06.567Z,1.38
2022-10-04T16:31:53.423Z,2.10
2022-10-04T16:34:46.345Z,0.90
2022-10-04T16:37:19.528Z,1.00
2022-10-04T16:40:03.206Z,1.20
2022-10-04T16:42:48.086Z,1.10
2022-10-04T16:45:37.141Z,1.60
2022-10-04T16:48:15.142Z,1.20
2022-10-04T16:51:01.155Z,0.80
2022-10-04T16:53:44.832Z,1.20
2022-10-04T16:56:17.999Z,1.00
2022-10-04T16:59:00.367Z,1.10
2022-10-04T17:01:54.959Z,0.90
2022-10-04T17:05:14.156Z,1.20
2022-10-04T17:07:59.135Z,1.23
2022-10-04T17:10:39.288Z,1.13
2022-10-04T17:13:25.759Z,1.88
2022-10-04T17:16:05.149Z,1.45
2022-10-04T17:18:44.716Z,1.65
2022-10-04T17:21:24.762Z,1.20
2022-10-04T17:24:06.665Z,1.50
2022-10-04T17:26:48.758Z,1.80
2022-10-04T17:29:32.510Z,1.90
2022-10-04T17:32:08.251Z,1.60
2022-10-04T17:34:49.777Z,1.08
2022-10-04T17:37:27.450Z,1.73
2022-10-04T17:40:09.005Z,1.50
2022-10-04T17:42:47.697Z,1.63
2022-10-04T17:45:46.195Z,1.58
2022-10-04T17:48:35.432Z,1.83
2022-10-04T17:51:41.656Z,1.63
2022-10-04T17:54:32.504Z,2.08
2022-10-04T17:57:15.925Z,1.73
2022-10-04T17:59:47.236Z,1.70
2022-10-04T18:02:21.411Z,2.40
2022-10-04T18:04:55.822Z,1.88
2022-10-04T18:07:27.734Z,1.88
2022-10-04T18:09:59.933Z,2.22
2022-10-04T18:12:31.401Z,2.20
2022-10-04T18:15:07.336Z,2.75
2022-10-04T18:17:41.726Z,2.38
2022-10-04T18:20:27.765Z,2.45
2022-10-04T18:23:00.287Z,2.50
2022-10-04T18:25:30.980Z,2.75
2022-10-04T18:28:06.959Z,2.50
2022-10-04T18:30:36.132Z,2.80
2022-10-04T18:33:16.497Z,2.65
2022-10-04T18:36:17.696Z,2.50
2022-10-04T18:38:48.061Z,2.60
2022-10-04T18:41:20.252Z,2.35
2022-10-04T18:43:53.178Z,2.22
2022-10-04T18:46:23.246Z,2.92
2022-10-04T18:48:57.989Z,2.60
2022-10-04T18:51:29.804Z,2.67
2022-10-04T18:54:13.358Z,2.70
2022-10-04T18:56:51.196Z,2.83
2022-10-04T18:59:51.441Z,2.42
2022-10-04T19:02:29.370Z,3.25
2022-10-04T19:05:08.843Z,3.00
2022-10-04T19:07:44.321Z,3.10
2022-10-04T19:10:23.137Z,2.38
2022-10-04T19:13:02.534Z,2.58
2022-10-04T19:15:47.727Z,3.92
2022-10-04T19:18:30.813Z,2.75
2022-10-04T19:21:11.284Z,2.80
2022-10-04T19:23:51.214Z,2.70
2022-10-04T19:26:31.989Z,2.92
2022-10-04T19:29:11.688Z,2.53
2022-10-04T19:31:49.278Z,2.50
2022-10-04T19:34:22.247Z,2.72
2022-10-04T19:36:58.403Z,2.90
2022-10-04T19:39:36.910Z,2.80
2022-10-04T19:42:10.682Z,2.67
2022-10-04T19:44:52.813Z,2.72
2022-10-04T19:47:35.189Z,3.00
2022-10-04T19:50:16.291Z,3.47
2022-10-04T19:52:53.315Z,2.72
2022-10-04T19:55:25.059Z,2.92
2022-10-04T19:58:01.540Z,3.05
2022-10-04T20:00:29.546Z,3.15
2022-10-04T20:02:57.556Z,3.10
2022-10-04T20:05:25.920Z,2.97
2022-10-04T20:08:01.541Z,2.97
2022-10-04T20:10:33.476Z,2.80
2022-10-04T20:13:21.447Z,3.83
2022-10-04T20:15:51.654Z,3.05
2022-10-04T20:19:09.713Z,2.90
2022-10-04T20:21:38.018Z,2.97
2022-10-04T20:24:17.228Z,2.80
2022-10-04T20:26:56.840Z,2.90
2022-10-04T20:30:16.537Z,2.42
2022-10-04T20:33:01.120Z,2.92
2022-10-04T20:36:09.632Z,2.60
2022-10-04T20:39:06.682Z,2.83
2022-10-04T20:42:04.426Z,2.53
2022-10-04T20:44:56.177Z,3.03
2022-10-04T20:47:40.127Z,2.95
2022-10-04T20:50:27.096Z,2.33
2022-10-04T20:52:58.469Z,3.13
2022-10-04T20:55:28.424Z,2.78
2022-10-04T20:58:01.393Z,2.70
2022-10-04T21:00:33.868Z,2.90
2022-10-04T21:03:10.202Z,2.92
2022-10-04T21:05:38.963Z,3.00
2022-10-04T21:08:14.479Z,2.72
2022-10-04T21:11:04.936Z,2.90
2022-10-04T21:14:08.071Z,2.50
2022-10-04T21:16:50.902Z,2.70
2022-10-04T21:19:46.733Z,2.78
2022-10-04T21:22:37.725Z,2.90
2022-10-04T21:25:40.657Z,2.80
2022-10-04T21:28:32.598Z,2.20
2022-10-04T21:31:03.658Z,2.65
2022-10-04T21:33:36.126Z,2.53
2022-10-04T21:36:05.243Z,2.22
2022-10-04T21:38:33.335Z,2.47
2022-10-04T21:41:01.593Z,2.70
2022-10-04T21:43:29.895Z,2.47
2022-10-04T21:45:57.939Z,2.33
2022-10-04T21:48:27.773Z,2.55
2022-10-04T21:50:56.318Z,2.53
2022-10-04T21:53:24.368Z,1.98
2022-10-04T21:55:52.468Z,2.08
2022-10-04T21:58:20.491Z,2.35
2022-10-04T22:00:48.533Z,2.30
2022-10-04T22:03:16.563Z,2.75
2022-10-04T22:05:46.168Z,2.22
2022-10-04T22:08:14.224Z,2.85
2022-10-04T22:10:43.238Z,2.40
2022-10-04T22:13:11.490Z,2.63
2022-10-04T22:15:39.516Z,2.63
2022-10-04T22:18:07.987Z,2.13
2022-10-04T22:20:36.562Z,2.63
2022-10-04T22:23:11.267Z,2.35
2022-10-04T22:25:41.996Z,2.33
2022-10-04T22:28:19.263Z,2.60
2022-10-04T22:30:49.431Z,2.30
2022-10-04T22:33:28.178Z,2.20
2022-10-04T22:35:58.275Z,2.70
2022-10-04T22:38:27.675Z,2.28
2022-10-04T22:40:55.802Z,2.20
2022-10-04T22:43:23.934Z,1.98
2022-10-04T22:45:59.092Z,2.22
2022-10-04T22:48:29.042Z,2.47
2022-10-04T22:50:57.415Z,2.17
2022-10-04T22:53:28.848Z,1.70
2022-10-04T22:55:58.194Z,2.55
2022-10-04T22:58:27.801Z,2.10
2022-10-04T23:00:56.460Z,2.17
2022-10-04T23:03:31.259Z,2.15
2022-10-04T23:05:59.879Z,2.30
2022-10-04T23:08:29.596Z,1.85
2022-10-04T23:10:59.193Z,1.70
2022-10-04T23:13:28.113Z,2.42
2022-10-04T23:16:00.205Z,1.85
2022-10-04T23:18:29.420Z,1.60
2022-10-04T23:21:00.765Z,1.90
2022-10-04T23:23:32.476Z,1.90
2022-10-04T23:26:00.575Z,2.67
2022-10-04T23:28:28.764Z,2.42
2022-10-04T23:31:03.375Z,2.17
2022-10-04T23:33:31.601Z,1.90
2022-10-04T23:35:59.783Z,1.90
2022-10-04T23:38:30.163Z,1.70
2022-10-04T23:40:58.127Z,1.60
2022-10-04T23:43:26.905Z,2.00
2022-10-04T23:45:56.917Z,2.10
2022-10-04T23:48:28.191Z,1.67
2022-10-04T23:50:59.789Z,1.83
2022-10-04T23:53:31.987Z,2.10
2022-10-04T23:56:03.974Z,2.67
2022-10-04T23:58:35.301Z,2.15
